Time;durP1;ratioP1;P1;durP2;ratioP2;P2;SDS_P1;SDS_P2;PMS_P1;PMS_P2;Temp;Humidity;BMP_temperature;BMP_pressure;BME280_temperature;BME280_humidity;BME280_pressure;Samples;Min_cycle;Max_cycle;Signal;HPM_P1;HPM_P2
2022/12/25 00:02:03;;;;;;;4.17;1.90;;;;;;;;;;5015219;28;20424;-77
2022/12/25 00:04:29;;;;;;;4.30;2.23;;;;;;;;;;5014203;28;20431;-79
2022/12/25 00:06:54;;;;;;;6.80;2.10;;;;;;;;;;5014989;28;20425;-77
2022/12/25 00:09:21;;;;;;;8.93;3.10;;;;;;;;;;5014015;28;20520;-79
2022/12/25 00:11:47;;;;;;;5.53;2.90;;;;;;;;;;5013612;28;20427;-79
2022/12/25 00:14:12;;;;;;;3.30;1.67;;;;;;;;;;5013547;28;21023;-78
2022/12/25 00:16:38;;;;;;;35.60;3.90;;;;;;;;;;5013574;28;20526;-79
2022/12/25 00:19:04;;;;;;;3.67;2.13;;;;;;;;;;5013782;28;20589;-78
2022/12/25 00:21:32;;;;;;;4.60;0.73;;;;;;;;;;5015428;28;20460;-79
2022/12/25 00:23:58;;;;;;;5.17;1.57;;;;;;;;;;5015020;28;20457;-78
2022/12/25 00:26:25;;;;;;;3.53;1.50;;;;;;;;;;5015147;28;20894;-78
2022/12/25 00:28:52;;;;;;;8.00;2.73;;;;;;;;;;5013724;28;20926;-77
2022/12/25 00:31:18;;;;;;;9.00;2.70;;;;;;;;;;5014708;28;20421;-77
2022/12/25 00:33:45;;;;;;;5.47;2.90;;;;;;;;;;5015165;28;20504;-77
2022/12/25 00:36:11;;;;;;;16.63;3.90;;;;;;;;;;5013171;28;20578;-77
2022/12/25 00:38:37;;;;;;;12.43;4.10;;;;;;;;;;5013382;28;20465;-78
2022/12/25 00:41:05;;;;;;;4.87;3.40;;;;;;;;;;5013060;28;20453;-77
2022/12/25 00:43:31;;;;;;;13.93;4.17;;;;;;;;;;5013427;28;20509;-76
2022/12/25 00:46:01;;;;;;;11.47;3.37;;;;;;;;;;5013103;28;20505;-77
2022/12/25 00:48:28;;;;;;;7.40;2.60;;;;;;;;;;5014398;28;20469;-77
2022/12/25 00:50:55;;;;;;;15.73;4.00;;;;;;;;;;5013701;28;20977;-77
2022/12/25 00:53:21;;;;;;;7.10;2.70;;;;;;;;;;5012934;28;20411;-76
2022/12/25 00:55:51;;;;;;;5.07;2.50;;;;;;;;;;5014512;28;20510;-77
2022/12/25 00:58:17;;;;;;;8.67;2.80;;;;;;;;;;5014468;28;20489;-77
2022/12/25 01:00:42;;;;;;;10.93;2.77;;;;;;;;;;5012584;28;20562;-77
2022/12/25 01:03:08;;;;;;;4.57;1.90;;;;;;;;;;5014124;28;20995;-76
2022/12/25 01:05:34;;;;;;;13.00;2.70;;;;;;;;;;5014354;28;20429;-77
2022/12/25 01:08:00;;;;;;;7.37;2.90;;;;;;;;;;5013887;28;20415;-78
2022/12/25 01:10:26;;;;;;;10.40;3.10;;;;;;;;;;5012892;28;20423;-78
2022/12/25 01:12:52;;;;;;;3.93;2.07;;;;;;;;;;5013634;28;20915;-77
2022/12/25 01:15:19;;;;;;;7.90;3.00;;;;;;;;;;5013622;28;20415;-77
2022/12/25 01:17:45;;;;;;;3.00;1.53;;;;;;;;;;5014034;28;20437;-78
2022/12/25 01:20:12;;;;;;;12.77;2.67;;;;;;;;;;5012655;28;20472;-77
2022/12/25 01:22:38;;;;;;;4.70;2.20;;;;;;;;;;5014174;28;20416;-77
2022/12/25 01:25:04;;;;;;;7.67;2.83;;;;;;;;;;5013581;28;20557;-77
2022/12/25 01:27:31;;;;;;;8.67;2.17;;;;;;;;;;5013508;28;20414;-79
2022/12/25 01:29:57;;;;;;;13.07;3.20;;;;;;;;;;5013352;28;20481;-79
2022/12/25 01:32:23;;;;;;;5.20;2.10;;;;;;;;;;5013835;28;20439;-78
2022/12/25 01:34:49;;;;;;;6.13;2.57;;;;;;;;;;5012490;28;20500;-78
2022/12/25 01:37:15;;;;;;;11.27;3.40;;;;;;;;;;5013197;28;20899;-78
2022/12/25 01:39:41;;;;;;;12.93;2.87;;;;;;;;;;5013576;28;20501;-77
2022/12/25 01:42:10;;;;;;;9.73;2.80;;;;;;;;;;5011866;28;20484;-79
2022/12/25 01:44:36;;;;;;;10.97;2.70;;;;;;;;;;5012366;28;20787;-78
2022/12/25 01:47:04;;;;;;;15.23;3.40;;;;;;;;;;5011934;28;20426;-78
2022/12/25 01:49:31;;;;;;;13.77;1.93;;;;;;;;;;5013333;28;20317;-79
2022/12/25 01:52:03;;;;;;;9.77;1.83;;;;;;;;;;5013391;28;20414;-80
2022/12/25 01:54:36;;;;;;;18.63;2.80;;;;;;;;;;5013419;28;20405;-79
2022/12/25 01:57:03;;;;;;;25.83;3.00;;;;;;;;;;5013431;28;20502;-80
2022/12/25 01:59:29;;;;;;;12.50;1.80;;;;;;;;;;5012032;28;20530;-81
2022/12/25 02:01:56;;;;;;;18.73;3.20;;;;;;;;;;5011580;28;20449;-80
2022/12/25 02:04:38;;;;;;;18.03;3.90;;;;;;;;;;5013292;28;20946;-80
2022/12/25 02:07:09;;;;;;;28.57;2.87;;;;;;;;;;5012975;28;20414;-79
2022/12/25 02:09:36;;;;;;;3.53;1.77;;;;;;;;;;5013149;28;20421;-80
2022/12/25 02:12:02;;;;;;;24.23;3.10;;;;;;;;;;5011495;28;20469;-80
2022/12/25 02:14:30;;;;;;;20.87;3.40;;;;;;;;;;5011840;28;20428;-80
2022/12/25 02:16:59;;;;;;;20.07;3.00;;;;;;;;;;5011471;28;20414;-80
2022/12/25 02:19:37;;;;;;;8.70;2.27;;;;;;;;;;5013180;28;20832;-80
2022/12/25 02:22:15;;;;;;;13.17;2.57;;;;;;;;;;5013073;28;20428;-80
2022/12/25 02:24:47;;;;;;;7.70;1.17;;;;;;;;;;5011882;28;20423;-79
2022/12/25 02:27:22;;;;;;;20.77;2.57;;;;;;;;;;5013155;28;20896;-79
2022/12/25 02:29:53;;;;;;;10.13;2.13;;;;;;;;;;5012860;28;20433;-80
2022/12/25 02:32:19;;;;;;;22.93;2.17;;;;;;;;;;5011680;28;20432;-80
2022/12/25 02:34:55;;;;;;;16.73;3.30;;;;;;;;;;5013034;28;20425;-80
2022/12/25 02:37:38;;;;;;;7.17;1.47;;;;;;;;;;5014274;28;20417;-80
2022/12/25 02:40:06;;;;;;;9.13;2.50;;;;;;;;;;5016931;28;20564;-78
2022/12/25 03:07:45;;;;;;;43.87;6.00;;;;;;;;;;5016368;28;20429;-79
2022/12/25 03:13:03;;;;;;;33.63;5.93;;;;;;;;;;5016164;28;20469;-78
2022/12/25 03:18:16;;;;;;;19.40;4.63;;;;;;;;;;5016514;28;20433;-78
2022/12/25 03:28:58;;;;;;;15.90;3.50;;;;;;;;;;5016369;28;20460;-78
2022/12/25 03:31:27;;;;;;;16.00;3.07;;;;;;;;;;5015958;28;20394;-78
2022/12/25 03:37:34;;;;;;;11.63;3.03;;;;;;;;;;5016206;28;20818;-77
2022/12/25 04:38:08;;;;;;;10.53;3.17;;;;;;;;;;5015272;28;20410;-79
2022/12/25 04:40:34;;;;;;;17.20;3.40;;;;;;;;;;5013520;28;20477;-77
2022/12/25 04:43:00;;;;;;;9.60;3.37;;;;;;;;;;5013655;28;20472;-77
2022/12/25 04:45:29;;;;;;;7.30;3.53;;;;;;;;;;5013277;28;20779;-78
2022/12/25 04:47:55;;;;;;;22.90;4.00;;;;;;;;;;5013353;28;20426;-79
2022/12/25 04:50:21;;;;;;;11.50;2.50;;;;;;;;;;5014838;28;20958;-78
2022/12/25 04:52:47;;;;;;;11.03;3.50;;;;;;;;;;5013455;28;20418;-78
2022/12/25 04:55:13;;;;;;;11.07;4.10;;;;;;;;;;5014656;28;20411;-78
2022/12/25 04:57:39;;;;;;;8.30;4.23;;;;;;;;;;5013315;28;20426;-79
2022/12/25 05:00:05;;;;;;;17.77;5.53;;;;;;;;;;5013412;28;20477;-78
2022/12/25 05:02:37;;;;;;;9.57;3.60;;;;;;;;;;5012997;28;20930;-78
2022/12/25 05:05:03;;;;;;;10.43;3.60;;;;;;;;;;5014530;28;20457;-78
2022/12/25 05:07:29;;;;;;;8.93;4.37;;;;;;;;;;5014388;28;20585;-78
2022/12/25 05:09:55;;;;;;;12.43;3.67;;;;;;;;;;5014337;28;20461;-78
2022/12/25 05:12:21;;;;;;;7.60;3.73;;;;;;;;;;5014416;28;20433;-77
2022/12/25 05:14:47;;;;;;;9.37;4.10;;;;;;;;;;5013930;28;20467;-78
2022/12/25 05:17:13;;;;;;;12.30;5.63;;;;;;;;;;5014267;28;20899;-78
2022/12/25 05:19:39;;;;;;;12.07;6.27;;;;;;;;;;5014143;28;21061;-78
2022/12/25 05:22:05;;;;;;;11.03;3.87;;;;;;;;;;5014142;28;20406;-78
2022/12/25 05:24:31;;;;;;;10.67;4.50;;;;;;;;;;5014193;28;20902;-78
2022/12/25 05:26:57;;;;;;;9.93;5.30;;;;;;;;;;5014119;28;20418;-78
2022/12/25 05:29:22;;;;;;;7.40;4.67;;;;;;;;;;5013719;28;20509;-78
2022/12/25 05:31:48;;;;;;;9.37;4.63;;;;;;;;;;5013921;28;20453;-78
2022/12/25 05:34:20;;;;;;;10.53;5.87;;;;;;;;;;5014047;28;20467;-78
2022/12/25 05:36:46;;;;;;;10.87;5.47;;;;;;;;;;5014118;28;20749;-78
2022/12/25 05:39:12;;;;;;;9.90;5.53;;;;;;;;;;5013823;28;20473;-78
2022/12/25 05:41:38;;;;;;;15.43;5.60;;;;;;;;;;5012623;28;20422;-78
2022/12/25 05:44:04;;;;;;;12.37;6.43;;;;;;;;;;5013760;28;20406;-78
2022/12/25 05:46:30;;;;;;;12.40;5.97;;;;;;;;;;5013625;28;21048;-78
2022/12/25 05:48:56;;;;;;;12.73;6.57;;;;;;;;;;5012333;28;20994;-79
2022/12/25 05:51:22;;;;;;;11.67;7.23;;;;;;;;;;5012392;28;20929;-78
2022/12/25 05:53:48;;;;;;;12.73;5.27;;;;;;;;;;5013278;28;20452;-78
2022/12/25 05:56:14;;;;;;;13.53;6.50;;;;;;;;;;5013639;28;20410;-78
2022/12/25 05:58:40;;;;;;;11.70;6.40;;;;;;;;;;5013479;28;20889;-78
2022/12/25 06:01:10;;;;;;;14.80;5.90;;;;;;;;;;5013118;28;20418;-78
2022/12/25 06:03:36;;;;;;;20.80;6.50;;;;;;;;;;5013537;28;20410;-78
2022/12/25 06:06:02;;;;;;;11.10;5.00;;;;;;;;;;5012184;28;20422;-78
2022/12/25 06:08:33;;;;;;;16.40;6.20;;;;;;;;;;5013373;28;20904;-78
2022/12/25 06:10:59;;;;;;;12.20;5.80;;;;;;;;;;5013378;28;20415;-78
2022/12/25 06:13:25;;;;;;;13.40;6.23;;;;;;;;;;5012965;28;20906;-78
2022/12/25 06:15:50;;;;;;;13.30;7.53;;;;;;;;;;5012919;28;20430;-78
2022/12/25 06:18:16;;;;;;;10.03;5.10;;;;;;;;;;5013282;28;21045;-79
2022/12/25 06:20:45;;;;;;;11.60;5.90;;;;;;;;;;5011842;28;21028;-78
2022/12/25 06:23:14;;;;;;;19.23;5.67;;;;;;;;;;5011023;28;20419;-78
2022/12/25 06:25:40;;;;;;;10.50;4.30;;;;;;;;;;5012906;28;20819;-79
2022/12/25 06:28:06;;;;;;;7.60;4.83;;;;;;;;;;5011301;28;20418;-79
2022/12/25 06:30:32;;;;;;;14.67;6.70;;;;;;;;;;5011430;28;20415;-80
2022/12/25 06:32:59;;;;;;;10.67;5.20;;;;;;;;;;5010933;28;20902;-78
2022/12/25 06:35:25;;;;;;;12.13;5.53;;;;;;;;;;5011465;28;20424;-78
2022/12/25 06:37:51;;;;;;;8.70;4.53;;;;;;;;;;5011732;28;20433;-78
2022/12/25 06:40:18;;;;;;;12.73;6.00;;;;;;;;;;5011772;28;20496;-78
2022/12/25 06:42:44;;;;;;;10.70;3.97;;;;;;;;;;5013045;28;20425;-78
2022/12/25 06:45:10;;;;;;;12.90;6.73;;;;;;;;;;5012379;28;20891;-78
2022/12/25 06:47:37;;;;;;;8.93;4.90;;;;;;;;;;5013020;28;20418;-78
2022/12/25 06:50:04;;;;;;;13.50;5.20;;;;;;;;;;5012851;28;20520;-78
2022/12/25 06:52:31;;;;;;;18.20;5.70;;;;;;;;;;5013077;28;20438;-78
2022/12/25 06:54:57;;;;;;;13.10;5.23;;;;;;;;;;5012961;28;20414;-78
2022/12/25 06:57:23;;;;;;;13.30;5.00;;;;;;;;;;5012983;28;20405;-78
2022/12/25 06:59:49;;;;;;;17.40;5.07;;;;;;;;;;5011225;28;20993;-78
2022/12/25 07:02:21;;;;;;;12.23;5.40;;;;;;;;;;5012903;28;20410;-78
2022/12/25 07:04:47;;;;;;;10.23;5.30;;;;;;;;;;5012871;28;20414;-78
2022/12/25 07:07:14;;;;;;;13.00;5.30;;;;;;;;;;5012955;28;20803;-78
2022/12/25 07:09:41;;;;;;;14.00;6.23;;;;;;;;;;5012888;28;20814;-79
2022/12/25 07:12:18;;;;;;;11.00;4.63;;;;;;;;;;5012832;28;20892;-78
2022/12/25 07:14:47;;;;;;;13.27;5.07;;;;;;;;;;5011250;28;20926;-78
2022/12/25 07:17:13;;;;;;;14.43;5.63;;;;;;;;;;5011537;28;20426;-78
2022/12/25 07:19:39;;;;;;;12.43;4.90;;;;;;;;;;5012737;28;20474;-78
2022/12/25 07:22:05;;;;;;;11.50;5.20;;;;;;;;;;5012672;28;20410;-78
2022/12/25 07:24:31;;;;;;;17.00;5.70;;;;;;;;;;5013096;28;20429;-78
2022/12/25 07:26:57;;;;;;;7.73;3.80;;;;;;;;;;5016321;28;20541;-78
2022/12/25 07:29:23;;;;;;;10.17;5.37;;;;;;;;;;5015907;28;20422;-78
2022/12/25 07:31:48;;;;;;;16.10;5.87;;;;;;;;;;5016249;28;20413;-79
2022/12/25 07:34:16;;;;;;;10.07;4.67;;;;;;;;;;5016215;28;20453;-79
2022/12/25 07:36:42;;;;;;;9.80;5.03;;;;;;;;;;5016179;28;20480;-78
2022/12/25 07:39:09;;;;;;;15.13;5.30;;;;;;;;;;5014841;28;20536;-77
2022/12/25 07:41:35;;;;;;;16.43;5.80;;;;;;;;;;5016086;28;20827;-78
2022/12/25 07:44:01;;;;;;;13.50;6.00;;;;;;;;;;5015837;28;20811;-78
2022/12/25 07:46:27;;;;;;;12.43;5.33;;;;;;;;;;5015988;28;20418;-79
2022/12/25 07:48:53;;;;;;;13.80;5.90;;;;;;;;;;5015659;28;20469;-77
2022/12/25 07:51:23;;;;;;;10.60;4.33;;;;;;;;;;5015882;28;20900;-79
2022/12/25 07:53:49;;;;;;;22.97;7.93;;;;;;;;;;5014399;28;20414;-79
2022/12/25 07:56:16;;;;;;;11.93;4.60;;;;;;;;;;5015909;28;20909;-80
2022/12/25 07:58:42;;;;;;;13.67;6.13;;;;;;;;;;5014586;28;20426;-79
2022/12/25 08:01:11;;;;;;;15.83;5.47;;;;;;;;;;5014017;28;20418;-79
2022/12/25 08:03:37;;;;;;;13.13;5.70;;;;;;;;;;5015941;28;20434;-79
2022/12/25 08:06:05;;;;;;;10.40;4.63;;;;;;;;;;5015894;28;20414;-78
2022/12/25 08:08:31;;;;;;;9.33;5.00;;;;;;;;;;5015718;28;20410;-79
2022/12/25 08:10:57;;;;;;;13.20;5.63;;;;;;;;;;5015887;28;20411;-78
2022/12/25 08:13:23;;;;;;;15.57;5.90;;;;;;;;;;5015617;28;20475;-79
2022/12/25 08:15:49;;;;;;;12.80;6.27;;;;;;;;;;5015181;28;20445;-79
2022/12/25 08:18:15;;;;;;;14.47;5.70;;;;;;;;;;5015594;28;20497;-79
2022/12/25 08:20:41;;;;;;;15.93;5.30;;;;;;;;;;5015282;28;21139;-79
2022/12/25 08:23:07;;;;;;;12.17;6.17;;;;;;;;;;5015605;28;20522;-78
2022/12/25 08:25:33;;;;;;;30.27;15.47;;;;;;;;;;5015350;28;20495;-78
2022/12/25 08:28:00;;;;;;;29.77;13.17;;;;;;;;;;5015290;28;20411;-78
2022/12/25 08:30:27;;;;;;;17.23;10.17;;;;;;;;;;5013746;28;20800;-79
2022/12/25 08:32:53;;;;;;;15.83;6.97;;;;;;;;;;5015319;28;20411;-78
2022/12/25 08:35:19;;;;;;;18.03;8.97;;;;;;;;;;5014882;28;20457;-78
2022/12/25 08:37:45;;;;;;;18.80;12.10;;;;;;;;;;5015183;28;20402;-79
2022/12/25 08:40:11;;;;;;;15.87;7.20;;;;;;;;;;5015234;28;21054;-79
2022/12/25 08:42:37;;;;;;;14.70;7.20;;;;;;;;;;5014991;28;20407;-79
2022/12/25 08:45:03;;;;;;;13.97;5.20;;;;;;;;;;5014597;28;20432;-79
2022/12/25 08:47:29;;;;;;;14.17;4.87;;;;;;;;;;5014967;28;20414;-79
2022/12/25 08:49:58;;;;;;;18.63;6.20;;;;;;;;;;5013135;28;20552;-78
2022/12/25 08:52:24;;;;;;;9.67;4.50;;;;;;;;;;5013397;28;20419;-78
2022/12/25 08:54:50;;;;;;;10.30;4.07;;;;;;;;;;5014489;28;20423;-78
2022/12/25 08:57:25;;;;;;;15.47;4.40;;;;;;;;;;5014500;28;20418;-78
2022/12/25 08:59:54;;;;;;;13.97;5.23;;;;;;;;;;5012907;28;20496;-79
2022/12/25 09:02:26;;;;;;;10.67;5.00;;;;;;;;;;5012750;28;20521;-79
2022/12/25 09:04:52;;;;;;;13.70;6.93;;;;;;;;;;5014598;28;20410;-78
2022/12/25 09:07:28;;;;;;;19.60;6.37;;;;;;;;;;5014579;28;20775;-78
2022/12/25 09:09:59;;;;;;;12.00;5.80;;;;;;;;;;5014605;28;20414;-78
2022/12/25 09:12:25;;;;;;;13.60;5.10;;;;;;;;;;5014565;28;20494;-79
2022/12/25 09:14:57;;;;;;;12.70;4.33;;;;;;;;;;5011633;28;20410;-79
2022/12/25 09:17:30;;;;;;;16.00;6.93;;;;;;;;;;5008076;28;20434;-78
2022/12/25 09:19:56;;;;;;;17.23;5.67;;;;;;;;;;4994122;28;20820;-79
2022/12/25 09:22:22;;;;;;;7.00;5.90;;;;;;;;;;5004597;28;20420;-78
2022/12/25 09:24:48;;;;;;;12.27;5.33;;;;;;;;;;5003888;28;20431;-79
2022/12/25 09:27:14;;;;;;;14.70;5.93;;;;;;;;;;5006769;28;20417;-78
2022/12/25 09:29:40;;;;;;;16.00;5.57;;;;;;;;;;5005677;28;20427;-79
2022/12/25 09:32:07;;;;;;;15.37;7.17;;;;;;;;;;5003521;28;20464;-79
2022/12/25 09:34:33;;;;;;;11.60;5.00;;;;;;;;;;5005615;28;20487;-78
2022/12/25 09:37:05;;;;;;;13.40;7.37;;;;;;;;;;5010249;28;20773;-79
2022/12/25 09:39:34;;;;;;;14.87;7.23;;;;;;;;;;5013183;28;20478;-79
2022/12/25 09:42:00;;;;;;;14.63;5.37;;;;;;;;;;5013085;28;20408;-80
2022/12/25 09:44:34;;;;;;;11.43;4.17;;;;;;;;;;5013187;28;20504;-80
2022/12/25 09:47:02;;;;;;;13.93;5.53;;;;;;;;;;5013610;28;20406;-80
2022/12/25 09:49:47;;;;;;;15.33;6.70;;;;;;;;;;5013773;28;20563;-79
2022/12/25 09:52:48;;;;;;;18.17;6.97;;;;;;;;;;5013985;28;20450;-79
2022/12/25 09:55:19;;;;;;;13.70;7.90;;;;;;;;;;4964558;28;20940;-79
2022/12/25 09:57:55;;;;;;;19.00;7.60;;;;;;;;;;4997364;28;20481;-79
2022/12/25 10:00:25;;;;;;;17.27;5.80;;;;;;;;;;5001433;28;20502;-80
2022/12/25 10:03:06;;;;;;;10.50;4.30;;;;;;;;;;5002542;28;20465;-80
2022/12/25 10:05:51;;;;;;;10.47;4.63;;;;;;;;;;5009147;28;20425;-80
2022/12/25 10:08:22;;;;;;;19.03;8.23;;;;;;;;;;5013828;28;20472;-79
2022/12/25 10:10:50;;;;;;;17.40;8.13;;;;;;;;;;5013587;28;20429;-79
2022/12/25 10:13:24;;;;;;;22.03;8.30;;;;;;;;;;5012154;28;20783;-79
2022/12/25 10:16:09;;;;;;;14.60;8.93;;;;;;;;;;5011419;28;20900;-78
2022/12/25 10:18:43;;;;;;;13.47;7.40;;;;;;;;;;5013008;28;20483;-79
2022/12/25 10:21:12;;;;;;;16.67;7.63;;;;;;;;;;5013280;28;20433;-79
2022/12/25 10:23:39;;;;;;;15.47;6.20;;;;;;;;;;5013254;28;20962;-79
2022/12/25 10:26:14;;;;;;;16.53;6.13;;;;;;;;;;5012923;28;20415;-78
2022/12/25 10:28:42;;;;;;;12.47;7.90;;;;;;;;;;5012417;28;20414;-78
2022/12/25 10:31:18;;;;;;;13.00;6.73;;;;;;;;;;5012969;28;20439;-79
2022/12/25 10:33:44;;;;;;;9.23;4.20;;;;;;;;;;5012521;28;20422;-79
2022/12/25 10:36:10;;;;;;;17.10;6.80;;;;;;;;;;5010185;28;20481;-78
2022/12/25 10:38:36;;;;;;;11.43;4.53;;;;;;;;;;4991224;28;20431;-78
2022/12/25 10:41:02;;;;;;;8.87;3.90;;;;;;;;;;4991213;28;20491;-78
2022/12/25 10:43:30;;;;;;;15.17;5.83;;;;;;;;;;4990978;28;20417;-78
2022/12/25 10:45:56;;;;;;;13.83;4.90;;;;;;;;;;4999041;28;20947;-78
2022/12/25 10:48:25;;;;;;;11.50;5.10;;;;;;;;;;4989841;28;20551;-79
2022/12/25 10:50:51;;;;;;;12.27;6.50;;;;;;;;;;4989656;28;20911;-79
2022/12/25 10:53:19;;;;;;;11.83;6.50;;;;;;;;;;4992134;28;20448;-78
2022/12/25 10:56:14;;;;;;;10.70;4.20;;;;;;;;;;4991997;28;20420;-78
2022/12/25 10:58:40;;;;;;;10.00;5.80;;;;;;;;;;4984648;28;20423;-78
2022/12/25 11:01:07;;;;;;;11.10;4.90;;;;;;;;;;4995330;28;20425;-78
2022/12/25 11:03:34;;;;;;;10.10;4.27;;;;;;;;;;4995445;28;20524;-78
2022/12/25 11:06:01;;;;;;;5.50;3.53;;;;;;;;;;4995932;28;20428;-78
2022/12/25 11:08:28;;;;;;;12.10;4.40;;;;;;;;;;4995752;28;20429;-78
2022/12/25 11:10:58;;;;;;;13.47;4.57;;;;;;;;;;4997046;28;20421;-78
2022/12/25 11:13:28;;;;;;;12.60;4.67;;;;;;;;;;4996620;28;20420;-78
2022/12/25 11:16:03;;;;;;;13.23;3.97;;;;;;;;;;4995634;28;20508;-78
2022/12/25 11:18:33;;;;;;;7.83;3.10;;;;;;;;;;4996872;28;20412;-78
2022/12/25 11:21:00;;;;;;;8.90;4.67;;;;;;;;;;4995453;28;20480;-79
2022/12/25 11:23:27;;;;;;;11.40;4.70;;;;;;;;;;4995501;28;20759;-79
2022/12/25 11:25:59;;;;;;;11.90;4.93;;;;;;;;;;4995502;28;20419;-79
2022/12/25 11:28:25;;;;;;;8.47;3.40;;;;;;;;;;4996314;28;20412;-78
2022/12/25 11:30:54;;;;;;;7.90;4.73;;;;;;;;;;4995397;28;20423;-78
2022/12/25 11:33:24;;;;;;;7.20;3.60;;;;;;;;;;4996587;28;20505;-78
2022/12/25 11:35:51;;;;;;;8.77;5.30;;;;;;;;;;4996530;28;20421;-79
2022/12/25 11:38:18;;;;;;;12.40;5.50;;;;;;;;;;4995016;28;20490;-79
2022/12/25 11:40:50;;;;;;;14.00;4.80;;;;;;;;;;4996570;28;20473;-78
2022/12/25 11:43:19;;;;;;;10.27;5.20;;;;;;;;;;4994832;28;20416;-79
2022/12/25 11:45:48;;;;;;;11.60;6.90;;;;;;;;;;4995198;28;20502;-79
2022/12/25 11:48:21;;;;;;;14.80;5.77;;;;;;;;;;4994976;28;20551;-79
2022/12/25 11:50:49;;;;;;;12.90;5.60;;;;;;;;;;4995149;28;20440;-79
2022/12/25 11:53:38;;;;;;;13.60;6.00;;;;;;;;;;4996282;28;20404;-79
2022/12/25 11:56:09;;;;;;;11.87;5.73;;;;;;;;;;4995036;28;20797;-79
2022/12/25 11:59:01;;;;;;;16.13;5.40;;;;;;;;;;4995784;28;20416;-79
2022/12/25 12:01:32;;;;;;;10.40;5.57;;;;;;;;;;4993106;28;20433;-78
2022/12/25 12:04:00;;;;;;;12.00;4.07;;;;;;;;;;4994816;28;20429;-79
2022/12/25 12:06:35;;;;;;;8.93;3.70;;;;;;;;;;4994744;28;20425;-78
2022/12/25 12:09:26;;;;;;;13.50;6.47;;;;;;;;;;4994509;28;20418;-78
2022/12/25 12:11:58;;;;;;;11.00;6.30;;;;;;;;;;4994693;28;20447;-79
2022/12/25 12:14:27;;;;;;;17.00;6.53;;;;;;;;;;4994325;28;20805;-79
2022/12/25 12:16:52;;;;;;;19.20;6.37;;;;;;;;;;4995832;28;20426;-78
2022/12/25 12:19:26;;;;;;;10.47;4.57;;;;;;;;;;4994496;28;20475;-79
2022/12/25 12:21:53;;;;;;;14.17;5.50;;;;;;;;;;4995733;28;20424;-79
2022/12/25 12:24:21;;;;;;;14.13;6.07;;;;;;;;;;4995721;28;20919;-79
2022/12/25 12:26:58;;;;;;;9.20;4.53;;;;;;;;;;4994416;28;20983;-78
2022/12/25 12:29:26;;;;;;;12.53;4.43;;;;;;;;;;4994040;28;20412;-79
2022/12/25 12:31:53;;;;;;;14.23;6.03;;;;;;;;;;4995580;28;20590;-79
2022/12/25 12:34:25;;;;;;;10.20;5.10;;;;;;;;;;4995523;28;20403;-79
2022/12/25 12:36:54;;;;;;;12.57;6.07;;;;;;;;;;4995467;28;20449;-79
2022/12/25 12:39:21;;;;;;;9.77;4.53;;;;;;;;;;4993987;28;20453;-79
2022/12/25 12:41:48;;;;;;;8.57;4.70;;;;;;;;;;4995324;28;20437;-79
2022/12/25 12:44:15;;;;;;;11.17;5.57;;;;;;;;;;4995016;28;20417;-79
2022/12/25 12:46:49;;;;;;;13.47;6.33;;;;;;;;;;4994047;28;20866;-79
2022/12/25 12:49:24;;;;;;;11.97;6.30;;;;;;;;;;4993813;28;21039;-79
2022/12/25 12:51:53;;;;;;;11.90;5.90;;;;;;;;;;4995136;28;20423;-79
2022/12/25 12:54:23;;;;;;;13.50;5.73;;;;;;;;;;4995148;28;20449;-79
2022/12/25 12:57:03;;;;;;;13.00;6.73;;;;;;;;;;4995130;28;20505;-79
2022/12/25 12:59:49;;;;;;;11.77;6.80;;;;;;;;;;4994713;28;21013;-79
2022/12/25 13:02:17;;;;;;;13.87;7.37;;;;;;;;;;4995104;28;20401;-79
2022/12/25 13:04:48;;;;;;;13.23;5.70;;;;;;;;;;4995070;28;20413;-79
2022/12/25 13:07:23;;;;;;;9.90;4.90;;;;;;;;;;4994950;28;20445;-80
2022/12/25 13:09:55;;;;;;;11.27;5.97;;;;;;;;;;4994970;28;20409;-79
2022/12/25 13:12:21;;;;;;;14.00;7.27;;;;;;;;;;4994817;28;20779;-79
2022/12/25 13:14:50;;;;;;;11.80;6.57;;;;;;;;;;4994475;28;20516;-79
2022/12/25 13:17:23;;;;;;;13.90;6.10;;;;;;;;;;4994739;28;20496;-79
2022/12/25 13:19:56;;;;;;;10.80;5.33;;;;;;;;;;4994716;28;20488;-79
2022/12/25 13:22:29;;;;;;;10.23;4.67;;;;;;;;;;4993843;28;20924;-79
2022/12/25 13:24:59;;;;;;;12.70;5.27;;;;;;;;;;4993417;28;20430;-79
2022/12/25 13:27:30;;;;;;;10.53;4.63;;;;;;;;;;4994561;28;20412;-79
2022/12/25 13:29:56;;;;;;;7.23;4.67;;;;;;;;;;4994194;28;20483;-79
2022/12/25 13:32:27;;;;;;;10.40;6.07;;;;;;;;;;4994534;28;20444;-79
2022/12/25 13:34:54;;;;;;;11.37;5.93;;;;;;;;;;4994380;28;20909;-79
2022/12/25 13:37:24;;;;;;;9.07;5.33;;;;;;;;;;4993101;28;20467;-79
2022/12/25 13:39:52;;;;;;;10.87;5.17;;;;;;;;;;4994284;28;20897;-79
2022/12/25 13:42:20;;;;;;;12.20;6.10;;;;;;;;;;4994342;28;20418;-79
2022/12/25 13:44:50;;;;;;;13.97;6.33;;;;;;;;;;4993897;28;20406;-79
2022/12/25 13:47:21;;;;;;;12.27;7.00;;;;;;;;;;4994299;28;20953;-79
2022/12/25 13:49:47;;;;;;;16.40;5.87;;;;;;;;;;4993938;28;20804;-79
2022/12/25 13:52:15;;;;;;;10.40;6.00;;;;;;;;;;4994076;28;20428;-79
2022/12/25 13:54:54;;;;;;;9.80;5.60;;;;;;;;;;4993912;28;20408;-79
2022/12/25 13:57:23;;;;;;;9.40;6.40;;;;;;;;;;4994035;28;20420;-79
2022/12/25 13:59:49;;;;;;;13.33;5.83;;;;;;;;;;4992295;28;20478;-79
2022/12/25 14:02:18;;;;;;;11.67;6.17;;;;;;;;;;4993944;28;20441;-79
2022/12/25 14:04:44;;;;;;;12.97;5.10;;;;;;;;;;4992725;28;20510;-79
2022/12/25 14:07:11;;;;;;;14.23;7.73;;;;;;;;;;4993943;28;20783;-79
2022/12/25 14:09:37;;;;;;;8.47;5.53;;;;;;;;;;4993893;28;20411;-79
2022/12/25 14:12:03;;;;;;;20.90;7.40;;;;;;;;;;4992657;28;20422;-79
2022/12/25 14:14:29;;;;;;;12.03;6.10;;;;;;;;;;4992150;28;20937;-79
2022/12/25 14:16:56;;;;;;;10.80;5.70;;;;;;;;;;4992541;28;20460;-79
2022/12/25 14:19:25;;;;;;;13.33;7.67;;;;;;;;;;4993763;28;20822;-79
2022/12/25 14:21:57;;;;;;;18.20;9.00;;;;;;;;;;4993800;28;20428;-79
2022/12/25 14:24:24;;;;;;;7.30;5.20;;;;;;;;;;4993735;28;20409;-79
2022/12/25 14:26:56;;;;;;;19.13;6.83;;;;;;;;;;4992164;28;20800;-79
2022/12/25 14:29:22;;;;;;;15.13;8.77;;;;;;;;;;4992088;28;20475;-79
2022/12/25 14:31:48;;;;;;;16.43;8.70;;;;;;;;;;4992372;28;20430;-79
2022/12/25 14:34:20;;;;;;;14.60;5.60;;;;;;;;;;4999121;28;20792;-79
2022/12/25 14:36:46;;;;;;;13.90;6.57;;;;;;;;;;5000076;28;20408;-79
2022/12/25 14:39:27;;;;;;;14.83;7.77;;;;;;;;;;5000014;28;20467;-79
2022/12/25 14:41:53;;;;;;;14.30;7.93;;;;;;;;;;5000146;28;20955;-78
2022/12/25 14:44:33;;;;;;;30.87;12.17;;;;;;;;;;4998363;28;20421;-78
2022/12/25 14:47:05;;;;;;;21.27;9.40;;;;;;;;;;5000049;28;20421;-78
2022/12/25 14:49:31;;;;;;;27.83;10.23;;;;;;;;;;4998579;28;20508;-79
2022/12/25 14:51:58;;;;;;;30.27;14.23;;;;;;;;;;4998686;28;20762;-79
2022/12/25 14:54:24;;;;;;;37.13;16.70;;;;;;;;;;4998629;28;20767;-79
2022/12/25 14:56:51;;;;;;;47.80;19.57;;;;;;;;;;4998646;28;20425;-79
2022/12/25 14:59:19;;;;;;;31.20;11.27;;;;;;;;;;4998227;28;20471;-79
2022/12/25 15:01:49;;;;;;;32.10;17.50;;;;;;;;;;4998600;28;20426;-79
2022/12/25 15:04:16;;;;;;;17.17;9.20;;;;;;;;;;4998657;28;20421;-79
2022/12/25 15:06:59;;;;;;;12.33;8.00;;;;;;;;;;4999852;28;20478;-79
2022/12/25 15:09:25;;;;;;;9.60;4.67;;;;;;;;;;4998788;28;20940;-79
2022/12/25 15:11:54;;;;;;;15.80;7.70;;;;;;;;;;4998548;28;20419;-79
2022/12/25 15:14:20;;;;;;;13.13;6.20;;;;;;;;;;4999473;28;20404;-79
2022/12/25 15:16:50;;;;;;;10.50;6.13;;;;;;;;;;4999835;28;20927;-79
2022/12/25 15:19:21;;;;;;;13.83;6.97;;;;;;;;;;4999704;28;20467;-79
2022/12/25 15:21:47;;;;;;;12.57;5.97;;;;;;;;;;4999755;28;20428;-79
2022/12/25 15:24:17;;;;;;;9.90;4.80;;;;;;;;;;4999752;28;20487;-79
2022/12/25 15:26:43;;;;;;;19.23;8.13;;;;;;;;;;4999730;28;20520;-79
2022/12/25 15:29:09;;;;;;;12.07;6.10;;;;;;;;;;4999349;28;20807;-80
2022/12/25 15:31:36;;;;;;;15.00;7.10;;;;;;;;;;4999675;28;20422;-81
2022/12/25 15:34:15;;;;;;;12.90;6.10;;;;;;;;;;4999583;28;20400;-80
2022/12/25 15:36:42;;;;;;;15.10;5.87;;;;;;;;;;4999765;28;20817;-79
2022/12/25 15:39:08;;;;;;;9.80;6.37;;;;;;;;;;4999606;28;20980;-80
2022/12/25 15:44:19;;;;;;;10.87;5.13;;;;;;;;;;4997611;28;20924;-80
2022/12/25 15:46:45;;;;;;;11.00;5.00;;;;;;;;;;4996584;28;20489;-81
2022/12/25 15:49:11;;;;;;;13.73;5.80;;;;;;;;;;4996192;28;20961;-81
2022/12/25 15:51:44;;;;;;;11.60;6.27;;;;;;;;;;4996493;28;20415;-81
2022/12/25 15:54:16;;;;;;;13.53;8.40;;;;;;;;;;4996614;28;20440;-81
2022/12/25 15:56:47;;;;;;;23.13;7.73;;;;;;;;;;4996335;28;20925;-81
2022/12/25 15:59:13;;;;;;;10.80;5.57;;;;;;;;;;4994666;28;20579;-80
2022/12/25 16:01:44;;;;;;;16.00;7.10;;;;;;;;;;4996292;28;20943;-80
2022/12/25 16:04:10;;;;;;;11.03;8.70;;;;;;;;;;4994842;28;20426;-78
2022/12/25 16:06:36;;;;;;;18.93;8.70;;;;;;;;;;4996064;28;20436;-78
2022/12/25 16:09:02;;;;;;;23.73;12.53;;;;;;;;;;4994732;28;20443;-78
2022/12/25 16:11:28;;;;;;;37.27;15.93;;;;;;;;;;4995923;28;20416;-78
2022/12/25 16:13:54;;;;;;;49.40;22.40;;;;;;;;;;4995582;28;20425;-78
2022/12/25 16:16:21;;;;;;;56.73;26.60;;;;;;;;;;4995769;28;20418;-79
2022/12/25 16:18:47;;;;;;;125.60;76.23;;;;;;;;;;4995854;28;20416;-78
2022/12/25 16:21:14;;;;;;;21.60;13.47;;;;;;;;;;4994565;28;20710;-78
2022/12/25 16:23:40;;;;;;;15.13;5.00;;;;;;;;;;4995695;28;20990;-78